sensor_id;sensor_type;location;lat;lon;timestamp;pressure;altitude;pressure_sealevel;temperature;humidity
15405;BME280;7801;48.124;11.590;2023-07-30T00:01:05;95103.00;;;19.96;89.91
15405;BME280;7801;48.124;11.590;2023-07-30T00:03:31;95112.03;;;19.84;89.76
15405;BME280;7801;48.124;11.590;2023-07-30T00:05:56;95126.00;;;19.90;91.39
15405;BME280;7801;48.124;11.590;2023-07-30T00:08:22;95129.16;;;19.96;91.95
15405;BME280;7801;48.124;11.590;2023-07-30T00:10:48;95139.75;;;19.85;92.50
15405;BME280;7801;48.124;11.590;2023-07-30T00:13:13;95128.16;;;19.62;92.18
15405;BME280;7801;48.124;11.590;2023-07-30T00:15:39;95131.19;;;19.60;93.55
15405;BME280;7801;48.124;11.590;2023-07-30T00:18:04;95125.38;;;19.58;93.57
15405;BME280;7801;48.124;11.590;2023-07-30T00:20:29;95123.53;;;19.43;94.10
15405;BME280;7801;48.124;11.590;2023-07-30T00:22:55;95121.00;;;19.50;93.51
15405;BME280;7801;48.124;11.590;2023-07-30T00:25:20;95133.44;;;19.58;94.36
15405;BME280;7801;48.124;11.590;2023-07-30T00:27:45;95129.31;;;19.45;93.88
15405;BME280;7801;48.124;11.590;2023-07-30T00:30:11;95130.69;;;19.54;94.14
15405;BME280;7801;48.124;11.590;2023-07-30T00:32:36;95140.03;;;19.61;94.39
15405;BME280;7801;48.124;11.590;2023-07-30T00:35:06;95133.19;;;19.63;93.69
15405;BME280;7801;48.124;11.590;2023-07-30T00:37:31;95132.66;;;19.58;94.45
15405;BME280;7801;48.124;11.590;2023-07-30T00:39:56;95139.22;;;19.41;94.24
15405;BME280;7801;48.124;11.590;2023-07-30T00:42:22;95143.00;;;19.55;94.96
15405;BME280;7801;48.124;11.590;2023-07-30T00:44:47;95149.12;;;19.52;95.28
15405;BME280;7801;48.124;11.590;2023-07-30T00:47:12;95148.03;;;19.57;95.28
15405;BME280;7801;48.124;11.590;2023-07-30T00:49:38;95145.44;;;19.61;94.88
15405;BME280;7801;48.124;11.590;2023-07-30T00:52:04;95153.44;;;19.57;94.66
15405;BME280;7801;48.124;11.590;2023-07-30T00:54:30;95146.72;;;19.67;94.88
15405;BME280;7801;48.124;11.590;2023-07-30T00:56:56;95148.63;;;19.66;94.66
15405;BME280;7801;48.124;11.590;2023-07-30T00:59:21;95146.78;;;19.70;94.29
15405;BME280;7801;48.124;11.590;2023-07-30T01:01:47;95146.34;;;19.68;94.17
15405;BME280;7801;48.124;11.590;2023-07-30T01:04:14;95145.22;;;19.69;94.32
15405;BME280;7801;48.124;11.590;2023-07-30T01:06:40;95145.66;;;19.71;94.31
15405;BME280;7801;48.124;11.590;2023-07-30T01:09:05;95139.41;;;19.67;94.11
15405;BME280;7801;48.124;11.590;2023-07-30T01:11:30;95126.81;;;19.71;94.23
15405;BME280;7801;48.124;11.590;2023-07-30T01:13:56;95123.13;;;19.60;93.19
15405;BME280;7801;48.124;11.590;2023-07-30T01:16:22;95116.31;;;19.66;93.45
15405;BME280;7801;48.124;11.590;2023-07-30T01:18:48;95123.41;;;19.74;93.25
15405;BME280;7801;48.124;11.590;2023-07-30T01:21:14;95122.63;;;19.54;93.13
15405;BME280;7801;48.124;11.590;2023-07-30T01:23:39;95127.44;;;19.65;93.77
15405;BME280;7801;48.124;11.590;2023-07-30T01:26:10;95133.19;;;19.63;93.43
15405;BME280;7801;48.124;11.590;2023-07-30T01:28:38;95134.47;;;19.50;92.91
15405;BME280;7801;48.124;11.590;2023-07-30T01:31:05;95129.19;;;19.57;93.35
15405;BME280;7801;48.124;11.590;2023-07-30T01:33:32;95136.16;;;19.58;93.46
15405;BME280;7801;48.124;11.590;2023-07-30T01:35:58;95138.37;;;19.52;93.82
15405;BME280;7801;48.124;11.590;2023-07-30T01:38:25;95131.25;;;19.44;93.60
15405;BME280;7801;48.124;11.590;2023-07-30T01:40:51;95130.34;;;19.56;93.98
15405;BME280;7801;48.124;11.590;2023-07-30T01:43:16;95128.06;;;19.58;93.78
15405;BME280;7801;48.124;11.590;2023-07-30T01:45:41;95131.91;;;19.57;93.78
15405;BME280;7801;48.124;11.590;2023-07-30T01:48:08;95136.28;;;19.65;93.69
15405;BME280;7801;48.124;11.590;2023-07-30T01:50:33;95137.63;;;19.55;93.64
15405;BME280;7801;48.124;11.590;2023-07-30T01:52:58;95140.81;;;19.61;93.68
15405;BME280;7801;48.124;11.590;2023-07-30T01:55:24;95139.19;;;19.56;93.57
15405;BME280;7801;48.124;11.590;2023-07-30T01:57:49;95139.97;;;19.57;93.94
15405;BME280;7801;48.124;11.590;2023-07-30T02:00:14;95133.88;;;19.60;93.19
15405;BME280;7801;48.124;11.590;2023-07-30T02:02:40;95141.44;;;19.54;93.00
15405;BME280;7801;48.124;11.590;2023-07-30T02:05:05;95132.41;;;19.63;93.39
15405;BME280;7801;48.124;11.590;2023-07-30T02:07:30;95139.75;;;19.46;93.32
15405;BME280;7801;48.124;11.590;2023-07-30T02:09:56;95136.81;;;19.51;93.71
15405;BME280;7801;48.124;11.590;2023-07-30T02:12:21;95120.69;;;19.55;93.31
15405;BME280;7801;48.124;11.590;2023-07-30T02:14:47;95128.84;;;19.59;93.16
15405;BME280;7801;48.124;11.590;2023-07-30T02:17:12;95131.78;;;19.34;93.03
15405;BME280;7801;48.124;11.590;2023-07-30T02:19:37;95138.09;;;19.42;94.05
15405;BME280;7801;48.124;11.590;2023-07-30T02:22:03;95136.91;;;19.39;93.16
15405;BME280;7801;48.124;11.590;2023-07-30T02:24:28;95137.47;;;19.29;93.79
15405;BME280;7801;48.124;11.590;2023-07-30T02:26:53;95138.81;;;19.39;94.51
15405;BME280;7801;48.124;11.590;2023-07-30T02:29:19;95136.53;;;19.41;93.87
15405;BME280;7801;48.124;11.590;2023-07-30T02:31:44;95126.00;;;19.32;94.00
15405;BME280;7801;48.124;11.590;2023-07-30T02:34:10;95133.16;;;19.25;93.50
15405;BME280;7801;48.124;11.590;2023-07-30T02:36:35;95127.19;;;19.35;94.43
15405;BME280;7801;48.124;11.590;2023-07-30T02:39:01;95128.03;;;19.39;93.96
15405;BME280;7801;48.124;11.590;2023-07-30T02:41:26;95124.09;;;19.33;92.54
15405;BME280;7801;48.124;11.590;2023-07-30T02:43:51;95125.22;;;19.32;92.69
15405;BME280;7801;48.124;11.590;2023-07-30T02:46:17;95122.53;;;19.32;94.31
15405;BME280;7801;48.124;11.590;2023-07-30T02:48:42;95113.47;;;19.40;94.14
15405;BME280;7801;48.124;11.590;2023-07-30T02:51:07;95118.84;;;19.20;94.04
15405;BME280;7801;48.124;11.590;2023-07-30T02:53:32;95127.25;;;19.19;94.35
15405;BME280;7801;48.124;11.590;2023-07-30T02:55:58;95128.31;;;19.14;95.41
15405;BME280;7801;48.124;11.590;2023-07-30T02:58:23;95132.22;;;19.17;95.36
15405;BME280;7801;48.124;11.590;2023-07-30T03:00:48;95143.63;;;19.10;95.66
15405;BME280;7801;48.124;11.590;2023-07-30T03:03:14;95139.06;;;19.14;95.76
15405;BME280;7801;48.124;11.590;2023-07-30T03:05:42;95147.56;;;19.16;96.22
15405;BME280;7801;48.124;11.590;2023-07-30T03:08:08;95142.88;;;19.13;95.29
15405;BME280;7801;48.124;11.590;2023-07-30T03:10:33;95141.03;;;18.98;95.77
15405;BME280;7801;48.124;11.590;2023-07-30T03:12:59;95136.91;;;18.85;97.48
15405;BME280;7801;48.124;11.590;2023-07-30T03:15:24;95141.62;;;18.92;98.17
15405;BME280;7801;48.124;11.590;2023-07-30T03:17:49;95159.41;;;18.96;97.83
15405;BME280;7801;48.124;11.590;2023-07-30T03:20:14;95163.94;;;18.92;97.11
15405;BME280;7801;48.124;11.590;2023-07-30T03:22:40;95167.78;;;18.91;97.27
15405;BME280;7801;48.124;11.590;2023-07-30T03:25:05;95176.59;;;18.92;97.60
15405;BME280;7801;48.124;11.590;2023-07-30T03:27:31;95163.09;;;18.88;98.54
15405;BME280;7801;48.124;11.590;2023-07-30T03:29:56;95163.78;;;18.85;99.27
15405;BME280;7801;48.124;11.590;2023-07-30T03:32:21;95163.63;;;18.78;100.00
15405;BME280;7801;48.124;11.590;2023-07-30T03:34:47;95165.88;;;18.76;99.74
15405;BME280;7801;48.124;11.590;2023-07-30T03:37:12;95170.63;;;18.82;99.90
15405;BME280;7801;48.124;11.590;2023-07-30T03:39:37;95161.97;;;18.73;100.00
15405;BME280;7801;48.124;11.590;2023-07-30T03:42:03;95165.00;;;18.72;100.00
15405;BME280;7801;48.124;11.590;2023-07-30T03:44:28;95161.19;;;18.73;100.00
15405;BME280;7801;48.124;11.590;2023-07-30T03:46:53;95171.88;;;18.69;100.00
15405;BME280;7801;48.124;11.590;2023-07-30T03:49:19;95170.75;;;18.70;100.00
15405;BME280;7801;48.124;11.590;2023-07-30T03:51:44;95168.06;;;18.70;100.00
15405;BME280;7801;48.124;11.590;2023-07-30T03:54:09;95167.44;;;18.61;100.00
15405;BME280;7801;48.124;11.590;2023-07-30T03:56:35;95172.28;;;18.55;100.00
15405;BME280;7801;48.124;11.590;2023-07-30T03:59:00;95174.53;;;18.53;100.00
15405;BME280;7801;48.124;11.590;2023-07-30T04:01:25;95169.16;;;18.53;100.00
15405;BME280;7801;48.124;11.590;2023-07-30T04:03:51;95175.31;;;18.54;100.00
15405;BME280;7801;48.124;11.590;2023-07-30T04:06:16;95181.78;;;18.53;100.00
15405;BME280;7801;48.124;11.590;2023-07-30T04:08:41;95174.88;;;18.52;100.00
15405;BME280;7801;48.124;11.590;2023-07-30T04:11:07;95169.84;;;18.50;100.00
15405;BME280;7801;48.124;11.590;2023-07-30T04:13:32;95174.38;;;18.46;100.00
15405;BME280;7801;48.124;11.590;2023-07-30T04:15:58;95176.84;;;18.55;100.00
15405;BME280;7801;48.124;11.590;2023-07-30T04:18:23;95176.50;;;18.57;100.00
15405;BME280;7801;48.124;11.590;2023-07-30T04:20:48;95163.97;;;18.61;100.00
15405;BME280;7801;48.124;11.590;2023-07-30T04:23:14;95170.34;;;18.56;100.00
15405;BME280;7801;48.124;11.590;2023-07-30T04:25:39;95177.63;;;18.55;100.00
15405;BME280;7801;48.124;11.590;2023-07-30T04:28:04;95179.06;;;18.49;100.00
15405;BME280;7801;48.124;11.590;2023-07-30T04:30:30;95181.09;;;18.56;100.00
15405;BME280;7801;48.124;11.590;2023-07-30T04:32:55;95183.13;;;18.59;100.00
15405;BME280;7801;48.124;11.590;2023-07-30T04:35:20;95181.22;;;18.60;100.00
15405;BME280;7801;48.124;11.590;2023-07-30T04:37:46;95189.94;;;18.57;100.00
15405;BME280;7801;48.124;11.590;2023-07-30T04:40:11;95191.69;;;18.49;100.00
15405;BME280;7801;48.124;11.590;2023-07-30T04:42:36;95195.66;;;18.39;100.00
15405;BME280;7801;48.124;11.590;2023-07-30T04:45:01;95191.94;;;18.28;100.00
15405;BME280;7801;48.124;11.590;2023-07-30T04:47:27;95198.53;;;18.46;100.00
15405;BME280;7801;48.124;11.590;2023-07-30T04:49:52;95203.72;;;18.39;100.00
15405;BME280;7801;48.124;11.590;2023-07-30T04:52:19;95201.47;;;18.41;100.00
15405;BME280;7801;48.124;11.590;2023-07-30T04:54:44;95196.53;;;18.43;100.00
15405;BME280;7801;48.124;11.590;2023-07-30T04:57:10;95205.63;;;18.54;99.87
15405;BME280;7801;48.124;11.590;2023-07-30T04:59:35;95211.44;;;18.57;99.08
15405;BME280;7801;48.124;11.590;2023-07-30T05:02:00;95217.91;;;18.68;98.53
15405;BME280;7801;48.124;11.590;2023-07-30T05:04:26;95213.91;;;18.62;98.21
15405;BME280;7801;48.124;11.590;2023-07-30T05:06:51;95220.16;;;18.66;97.98
15405;BME280;7801;48.124;11.590;2023-07-30T05:09:16;95226.31;;;18.66;98.32
15405;BME280;7801;48.124;11.590;2023-07-30T05:11:42;95231.59;;;18.63;98.06
15405;BME280;7801;48.124;11.590;2023-07-30T05:14:07;95226.41;;;18.70;97.35
15405;BME280;7801;48.124;11.590;2023-07-30T05:16:33;95229.09;;;18.70;97.68
15405;BME280;7801;48.124;11.590;2023-07-30T05:18:58;95217.81;;;18.80;97.66
15405;BME280;7801;48.124;11.590;2023-07-30T05:21:23;95226.31;;;18.82;97.02
15405;BME280;7801;48.124;11.590;2023-07-30T05:23:49;95214.25;;;18.76;96.83
15405;BME280;7801;48.124;11.590;2023-07-30T05:26:14;95221.81;;;18.70;96.92
15405;BME280;7801;48.124;11.590;2023-07-30T05:28:39;95225.69;;;18.73;97.30
15405;BME280;7801;48.124;11.590;2023-07-30T05:31:05;95229.00;;;18.82;96.67
15405;BME280;7801;48.124;11.590;2023-07-30T05:33:30;95241.75;;;18.85;97.32
15405;BME280;7801;48.124;11.590;2023-07-30T05:35:55;95240.53;;;18.82;96.65
15405;BME280;7801;48.124;11.590;2023-07-30T05:38:21;95240.28;;;18.87;96.48
15405;BME280;7801;48.124;11.590;2023-07-30T05:40:46;95236.94;;;18.94;96.74
15405;BME280;7801;48.124;11.590;2023-07-30T05:43:12;95242.34;;;18.94;96.42
15405;BME280;7801;48.124;11.590;2023-07-30T05:45:37;95246.94;;;18.94;95.75
15405;BME280;7801;48.124;11.590;2023-07-30T05:48:03;95247.78;;;18.98;95.88
15405;BME280;7801;48.124;11.590;2023-07-30T05:50:28;95246.31;;;19.00;95.18
15405;BME280;7801;48.124;11.590;2023-07-30T05:52:53;95247.72;;;19.10;94.36
15405;BME280;7801;48.124;11.590;2023-07-30T05:55:19;95247.78;;;19.13;94.59
15405;BME280;7801;48.124;11.590;2023-07-30T05:57:44;95243.81;;;19.07;94.27
15405;BME280;7801;48.124;11.590;2023-07-30T06:00:10;95248.06;;;19.08;94.46
15405;BME280;7801;48.124;11.590;2023-07-30T06:02:35;95239.19;;;19.23;93.34
15405;BME280;7801;48.124;11.590;2023-07-30T06:05:01;95239.88;;;19.20;93.71
15405;BME280;7801;48.124;11.590;2023-07-30T06:07:26;95238.91;;;19.29;92.72
15405;BME280;7801;48.124;11.590;2023-07-30T06:09:51;95240.03;;;19.28;92.30
15405;BME280;7801;48.124;11.590;2023-07-30T06:12:17;95247.91;;;19.36;92.46
15405;BME280;7801;48.124;11.590;2023-07-30T06:14:42;95252.69;;;19.43;91.65
15405;BME280;7801;48.124;11.590;2023-07-30T06:17:07;95246.59;;;19.46;91.97
15405;BME280;7801;48.124;11.590;2023-07-30T06:19:33;95245.72;;;19.42;91.97
15405;BME280;7801;48.124;11.590;2023-07-30T06:21:58;95245.91;;;19.49;92.26
15405;BME280;7801;48.124;11.590;2023-07-30T06:24:23;95243.66;;;19.51;92.11
15405;BME280;7801;48.124;11.590;2023-07-30T06:26:49;95247.69;;;19.61;90.76
15405;BME280;7801;48.124;11.590;2023-07-30T06:29:14;95240.13;;;19.66;90.75
15405;BME280;7801;48.124;11.590;2023-07-30T06:31:40;95244.91;;;19.73;90.55
15405;BME280;7801;48.124;11.590;2023-07-30T06:34:05;95254.88;;;19.72;90.73
15405;BME280;7801;48.124;11.590;2023-07-30T06:36:31;95245.87;;;19.84;90.42
15405;BME280;7801;48.124;11.590;2023-07-30T06:38:56;95249.09;;;19.89;89.22
15405;BME280;7801;48.124;11.590;2023-07-30T06:41:22;95250.78;;;19.98;89.63
15405;BME280;7801;48.124;11.590;2023-07-30T06:43:47;95252.56;;;20.09;89.38
15405;BME280;7801;48.124;11.590;2023-07-30T06:46:12;95255.25;;;20.09;89.59
15405;BME280;7801;48.124;11.590;2023-07-30T06:48:38;95247.34;;;20.20;89.83
15405;BME280;7801;48.124;11.590;2023-07-30T06:51:06;95248.06;;;20.17;89.75
15405;BME280;7801;48.124;11.590;2023-07-30T06:53:32;95260.53;;;20.25;88.14
15405;BME280;7801;48.124;11.590;2023-07-30T06:55:57;95253.44;;;20.36;87.96
15405;BME280;7801;48.124;11.590;2023-07-30T06:58:23;95249.75;;;20.44;88.29
15405;BME280;7801;48.124;11.590;2023-07-30T07:00:48;95252.66;;;20.55;88.26
15405;BME280;7801;48.124;11.590;2023-07-30T07:03:14;95248.16;;;20.63;86.82
15405;BME280;7801;48.124;11.590;2023-07-30T07:05:39;95251.00;;;20.70;86.12
15405;BME280;7801;48.124;11.590;2023-07-30T07:08:04;95254.09;;;20.72;86.71
15405;BME280;7801;48.124;11.590;2023-07-30T07:10:30;95255.78;;;20.80;84.87
15405;BME280;7801;48.124;11.590;2023-07-30T07:12:56;95256.16;;;20.78;85.14
15405;BME280;7801;48.124;11.590;2023-07-30T07:15:21;95260.03;;;20.81;85.99
15405;BME280;7801;48.124;11.590;2023-07-30T07:17:46;95260.16;;;20.88;85.12
15405;BME280;7801;48.124;11.590;2023-07-30T07:20:12;95258.34;;;20.96;84.03
15405;BME280;7801;48.124;11.590;2023-07-30T07:22:37;95249.66;;;21.06;84.46
15405;BME280;7801;48.124;11.590;2023-07-30T07:25:03;95261.88;;;21.00;85.70
15405;BME280;7801;48.124;11.590;2023-07-30T07:27:28;95262.84;;;20.88;84.81
15405;BME280;7801;48.124;11.590;2023-07-30T07:29:53;95273.22;;;20.86;84.54
15405;BME280;7801;48.124;11.590;2023-07-30T07:32:19;95267.31;;;21.03;83.66
15405;BME280;7801;48.124;11.590;2023-07-30T07:34:48;95262.34;;;21.05;82.60
15405;BME280;7801;48.124;11.590;2023-07-30T07:37:16;95265.94;;;21.13;83.67
15405;BME280;7801;48.124;11.590;2023-07-30T07:39:44;95261.56;;;21.27;83.79
15405;BME280;7801;48.124;11.590;2023-07-30T07:42:09;95259.06;;;21.15;83.85
15405;BME280;7801;48.124;11.590;2023-07-30T07:44:35;95259.72;;;21.09;83.12
15405;BME280;7801;48.124;11.590;2023-07-30T07:47:00;95264.34;;;21.08;83.10
15405;BME280;7801;48.124;11.590;2023-07-30T07:49:26;95262.91;;;21.14;83.77
15405;BME280;7801;48.124;11.590;2023-07-30T07:51:51;95272.38;;;21.27;82.48
15405;BME280;7801;48.124;11.590;2023-07-30T07:54:16;95270.94;;;21.34;82.56
15405;BME280;7801;48.124;11.590;2023-07-30T07:56:42;95264.94;;;21.47;80.74
15405;BME280;7801;48.124;11.590;2023-07-30T07:59:07;95265.88;;;21.58;80.30
15405;BME280;7801;48.124;11.590;2023-07-30T08:01:32;95272.50;;;21.65;80.36
15405;BME280;7801;48.124;11.590;2023-07-30T08:03:58;95272.06;;;21.59;80.89
15405;BME280;7801;48.124;11.590;2023-07-30T08:06:23;95271.44;;;21.43;81.45
15405;BME280;7801;48.124;11.590;2023-07-30T08:08:49;95276.31;;;21.34;81.13
15405;BME280;7801;48.124;11.590;2023-07-30T08:11:14;95273.94;;;21.29;81.73
15405;BME280;7801;48.124;11.590;2023-07-30T08:13:39;95271.84;;;21.45;81.04
15405;BME280;7801;48.124;11.590;2023-07-30T08:16:05;95268.22;;;21.60;79.04
15405;BME280;7801;48.124;11.590;2023-07-30T08:18:30;95269.56;;;21.73;78.86
15405;BME280;7801;48.124;11.590;2023-07-30T08:20:55;95262.13;;;21.67;79.23
15405;BME280;7801;48.124;11.590;2023-07-30T08:23:21;95281.03;;;21.67;79.54
15405;BME280;7801;48.124;11.590;2023-07-30T08:25:47;95269.78;;;21.61;78.87
15405;BME280;7801;48.124;11.590;2023-07-30T08:28:12;95286.72;;;21.58;78.03
15405;BME280;7801;48.124;11.590;2023-07-30T08:30:37;95277.91;;;21.65;77.52
15405;BME280;7801;48.124;11.590;2023-07-30T08:33:03;95274.22;;;21.76;77.68
15405;BME280;7801;48.124;11.590;2023-07-30T08:35:28;95269.97;;;21.75;78.56
15405;BME280;7801;48.124;11.590;2023-07-30T08:37:54;95266.81;;;21.70;77.11
15405;BME280;7801;48.124;11.590;2023-07-30T08:40:23;95264.06;;;21.66;77.78
15405;BME280;7801;48.124;11.590;2023-07-30T08:42:50;95268.66;;;21.66;77.44
15405;BME280;7801;48.124;11.590;2023-07-30T08:45:17;95269.38;;;21.59;77.61
15405;BME280;7801;48.124;11.590;2023-07-30T08:47:42;95261.16;;;21.52;77.41
15405;BME280;7801;48.124;11.590;2023-07-30T08:50:08;95257.31;;;21.53;77.26
15405;BME280;7801;48.124;11.590;2023-07-30T08:52:34;95263.84;;;21.52;77.07
15405;BME280;7801;48.124;11.590;2023-07-30T08:55:01;95262.06;;;21.63;77.32
15405;BME280;7801;48.124;11.590;2023-07-30T08:57:28;95266.03;;;21.69;76.79
15405;BME280;7801;48.124;11.590;2023-07-30T09:00:05;95255.38;;;21.80;76.80
15405;BME280;7801;48.124;11.590;2023-07-30T09:02:37;95245.41;;;21.87;76.68
15405;BME280;7801;48.124;11.590;2023-07-30T09:05:04;95232.41;;;21.97;75.68
15405;BME280;7801;48.124;11.590;2023-07-30T09:07:29;95253.53;;;21.87;76.15
15405;BME280;7801;48.124;11.590;2023-07-30T09:09:55;95249.31;;;21.90;76.37
15405;BME280;7801;48.124;11.590;2023-07-30T09:12:26;95238.25;;;21.99;74.99
15405;BME280;7801;48.124;11.590;2023-07-30T09:14:51;95246.13;;;22.11;74.15
15405;BME280;7801;48.124;11.590;2023-07-30T09:17:17;95234.16;;;22.12;74.27
15405;BME280;7801;48.124;11.590;2023-07-30T09:19:43;95231.78;;;22.07;73.18
15405;BME280;7801;48.124;11.590;2023-07-30T09:22:09;95227.28;;;22.18;73.27
15405;BME280;7801;48.124;11.590;2023-07-30T09:24:34;95219.25;;;22.25;71.25
15405;BME280;7801;48.124;11.590;2023-07-30T09:27:02;95233.53;;;22.25;72.68
15405;BME280;7801;48.124;11.590;2023-07-30T09:29:28;95222.81;;;22.33;71.70
15405;BME280;7801;48.124;11.590;2023-07-30T09:31:54;95218.50;;;22.28;69.94
15405;BME280;7801;48.124;11.590;2023-07-30T09:34:21;95228.22;;;22.33;69.93
15405;BME280;7801;48.124;11.590;2023-07-30T09:36:49;95229.31;;;22.28;67.98
15405;BME280;7801;48.124;11.590;2023-07-30T09:39:19;95221.69;;;22.37;69.14
15405;BME280;7801;48.124;11.590;2023-07-30T09:41:45;95217.13;;;22.41;67.20
15405;BME280;7801;48.124;11.590;2023-07-30T09:44:11;95219.06;;;22.44;68.42
15405;BME280;7801;48.124;11.590;2023-07-30T09:46:44;95224.84;;;22.43;68.45
15405;BME280;7801;48.124;11.590;2023-07-30T09:49:10;95217.53;;;22.43;69.38
15405;BME280;7801;48.124;11.590;2023-07-30T09:51:38;95212.16;;;22.50;71.14
15405;BME280;7801;48.124;11.590;2023-07-30T09:54:08;95219.97;;;22.59;68.85
15405;BME280;7801;48.124;11.590;2023-07-30T09:56:38;95208.41;;;22.62;70.82
15405;BME280;7801;48.124;11.590;2023-07-30T09:59:04;95206.41;;;22.55;68.71
15405;BME280;7801;48.124;11.590;2023-07-30T10:01:31;95213.38;;;22.56;69.56
15405;BME280;7801;48.124;11.590;2023-07-30T10:03:57;95218.66;;;22.42;67.53
15405;BME280;7801;48.124;11.590;2023-07-30T10:06:25;95222.53;;;22.41;69.42
15405;BME280;7801;48.124;11.590;2023-07-30T10:08:53;95219.88;;;22.48;69.35
15405;BME280;7801;48.124;11.590;2023-07-30T10:11:22;95229.69;;;22.63;68.84
15405;BME280;7801;48.124;11.590;2023-07-30T10:13:48;95234.41;;;22.74;68.71
15405;BME280;7801;48.124;11.590;2023-07-30T10:16:16;95229.78;;;22.74;65.05
15405;BME280;7801;48.124;11.590;2023-07-30T10:18:42;95240.19;;;22.72;66.16
15405;BME280;7801;48.124;11.590;2023-07-30T10:21:09;95236.53;;;22.54;66.07
15405;BME280;7801;48.124;11.590;2023-07-30T10:23:35;95243.56;;;22.25;64.32
15405;BME280;7801;48.124;11.590;2023-07-30T10:26:10;95243.09;;;21.86;68.96
15405;BME280;7801;48.124;11.590;2023-07-30T10:28:36;95254.19;;;21.77;70.22
15405;BME280;7801;48.124;11.590;2023-07-30T10:31:07;95252.75;;;21.57;70.71
15405;BME280;7801;48.124;11.590;2023-07-30T10:33:52;95249.59;;;21.51;72.27
15405;BME280;7801;48.124;11.590;2023-07-30T10:36:31;95251.91;;;21.53;70.98
15405;BME280;7801;48.124;11.590;2023-07-30T10:38:58;95249.69;;;21.58;72.35
15405;BME280;7801;48.124;11.590;2023-07-30T10:41:26;95242.97;;;21.75;72.21
15405;BME280;7801;48.124;11.590;2023-07-30T10:43:53;95252.78;;;21.90;73.20
15405;BME280;7801;48.124;11.590;2023-07-30T10:46:19;95247.94;;;22.03;71.23
15405;BME280;7801;48.124;11.590;2023-07-30T10:48:45;95245.06;;;22.19;71.84
15405;BME280;7801;48.124;11.590;2023-07-30T10:51:18;95236.69;;;22.31;72.25
15405;BME280;7801;48.124;11.590;2023-07-30T10:53:46;95240.28;;;22.42;70.35
15405;BME280;7801;48.124;11.590;2023-07-30T10:56:12;95226.88;;;22.53;70.80
15405;BME280;7801;48.124;11.590;2023-07-30T10:58:38;95222.72;;;22.62;71.31
15405;BME280;7801;48.124;11.590;2023-07-30T11:01:08;95219.72;;;22.75;71.10
15405;BME280;7801;48.124;11.590;2023-07-30T11:03:33;95222.16;;;22.83;69.29
15405;BME280;7801;48.124;11.590;2023-07-30T11:06:00;95215.25;;;22.93;69.00
15405;BME280;7801;48.124;11.590;2023-07-30T11:08:39;95212.97;;;22.95;68.74
15405;BME280;7801;48.124;11.590;2023-07-30T11:11:06;95204.78;;;22.88;70.93
15405;BME280;7801;48.124;11.590;2023-07-30T11:13:42;95217.56;;;22.91;70.19
15405;BME280;7801;48.124;11.590;2023-07-30T11:16:09;95221.19;;;23.06;68.88
15405;BME280;7801;48.124;11.590;2023-07-30T11:18:36;95220.78;;;23.04;68.96
15405;BME280;7801;48.124;11.590;2023-07-30T11:21:13;95219.63;;;23.08;67.88
15405;BME280;7801;48.124;11.590;2023-07-30T11:23:40;95221.56;;;23.04;69.48
15405;BME280;7801;48.124;11.590;2023-07-30T11:26:07;95211.88;;;23.03;68.59
15405;BME280;7801;48.124;11.590;2023-07-30T11:28:38;95222.78;;;23.17;66.57
15405;BME280;7801;48.124;11.590;2023-07-30T11:33:30;95211.72;;;23.37;66.45
15405;BME280;7801;48.124;11.590;2023-07-30T11:35:56;95217.62;;;23.53;nan
15405;BME280;7801;48.124;11.590;2023-07-30T11:38:26;95215.37;;;23.62;65.80
15405;BME280;7801;48.124;11.590;2023-07-30T11:40:53;95213.00;;;23.57;65.42
15405;BME280;7801;48.124;11.590;2023-07-30T11:43:20;95219.12;;;23.47;66.40
15405;BME280;7801;48.124;11.590;2023-07-30T11:45:45;95210.56;;;23.38;66.15
15405;BME280;7801;48.124;11.590;2023-07-30T11:48:11;95221.06;;;23.50;62.38
15405;BME280;7801;48.124;11.590;2023-07-30T11:50:47;95218.75;;;23.48;61.24
15405;BME280;7801;48.124;11.590;2023-07-30T11:53:13;95237.75;;;23.52;61.97
15405;BME280;7801;48.124;11.590;2023-07-30T11:55:40;95260.44;;;23.37;63.94
15405;BME280;7801;48.124;11.590;2023-07-30T11:58:06;95250.22;;;23.12;65.83
15405;BME280;7801;48.124;11.590;2023-07-30T12:00:32;95255.00;;;22.82;66.12
15405;BME280;7801;48.124;11.590;2023-07-30T12:03:08;95259.34;;;22.56;68.29
15405;BME280;7801;48.124;11.590;2023-07-30T12:05:35;95255.38;;;22.43;67.57
15405;BME280;7801;48.124;11.590;2023-07-30T12:08:04;95259.63;;;22.44;67.95
15405;BME280;7801;48.124;11.590;2023-07-30T12:10:46;95254.59;;;22.43;67.84
15405;BME280;7801;48.124;11.590;2023-07-30T12:13:17;95247.25;;;22.43;69.19
15405;BME280;7801;48.124;11.590;2023-07-30T12:15:54;95250.13;;;22.61;67.22
15405;BME280;7801;48.124;11.590;2023-07-30T12:18:20;95256.72;;;22.63;66.66
15405;BME280;7801;48.124;11.590;2023-07-30T12:20:48;95264.09;;;22.67;67.08
15405;BME280;7801;48.124;11.590;2023-07-30T12:23:15;95238.63;;;22.71;66.55
15405;BME280;7801;48.124;11.590;2023-07-30T12:25:41;95251.03;;;22.76;68.12
15405;BME280;7801;48.124;11.590;2023-07-30T12:28:06;95253.34;;;22.74;67.75
15405;BME280;7801;48.124;11.590;2023-07-30T12:30:32;95264.25;;;22.81;66.77
15405;BME280;7801;48.124;11.590;2023-07-30T12:32:58;95264.56;;;22.76;67.81
15405;BME280;7801;48.124;11.590;2023-07-30T12:35:23;95260.44;;;22.85;68.85
15405;BME280;7801;48.124;11.590;2023-07-30T12:37:49;95273.13;;;22.78;68.57
15405;BME280;7801;48.124;11.590;2023-07-30T12:40:14;95272.03;;;22.86;67.88
15405;BME280;7801;48.124;11.590;2023-07-30T12:42:39;95281.25;;;22.78;69.30
15405;BME280;7801;48.124;11.590;2023-07-30T12:45:05;95276.03;;;22.66;70.76
15405;BME280;7801;48.124;11.590;2023-07-30T12:47:31;95270.25;;;22.63;70.42
15405;BME280;7801;48.124;11.590;2023-07-30T12:49:57;95274.41;;;22.54;72.00
15405;BME280;7801;48.124;11.590;2023-07-30T12:52:22;95273.22;;;22.51;72.13
15405;BME280;7801;48.124;11.590;2023-07-30T12:54:47;95270.44;;;22.44;73.09
15405;BME280;7801;48.124;11.590;2023-07-30T12:57:14;95268.63;;;22.55;73.39